Larkspur, Colorado
Current Conditions -  °F | °C
As of 1:16 AM on Thursday 29 Jan 2015 (Local Time) from KMNH Reporting Station
Overcast Overcast  
Wind Chill: 25°   Ceiling: 3300
Heat Index: 32°   Visibility: 10mi
Dew Point: 28°   Wind: 8mph
Humidity: 87%   Direction: 340°NNW
Pressure: 30.37"   Gusts: NA
Location:  39.23°N, 104.89°W
Report Text: KMNH 290816Z AUTO 34007KT 10SM OVC033 00/M02 A3037 RMK AO2
Loading
Personal Weather Stations






























Interactive Weather Map New forecast layout! Learn more

10-Day Weather Forecast

Advertisements
Track Severe Weather on mobile